createdAt,value
2017-10-25T00:01:13.827Z,5.90
2017-10-25T00:03:41.455Z,6.05
2017-10-25T00:06:09.126Z,7.05
2017-10-25T00:08:36.908Z,6.28
2017-10-25T00:11:04.543Z,6.47
2017-10-25T00:13:32.186Z,6.50
2017-10-25T00:15:59.798Z,7.60
2017-10-25T00:18:27.451Z,6.75
2017-10-25T00:20:55.104Z,6.25
2017-10-25T00:23:22.727Z,8.02
2017-10-25T00:25:51.140Z,7.95
2017-10-25T00:28:18.763Z,9.00
2017-10-25T00:30:46.429Z,9.00
2017-10-25T00:33:14.050Z,8.10
2017-10-25T00:35:41.674Z,9.40
2017-10-25T00:38:10.081Z,8.35
2017-10-25T00:40:37.706Z,7.60
2017-10-25T00:43:05.431Z,8.15
2017-10-25T00:45:33.815Z,8.75
2017-10-25T00:48:01.428Z,8.63
2017-10-25T00:50:29.854Z,8.20
2017-10-25T00:52:57.466Z,8.85
2017-10-25T00:55:25.163Z,9.00
2017-10-25T00:57:52.823Z,6.20
2017-10-25T01:00:20.441Z,9.75
2017-10-25T01:02:48.083Z,7.47
2017-10-25T01:05:15.814Z,8.35
2017-10-25T01:07:43.470Z,7.40
2017-10-25T01:10:11.101Z,7.47
2017-10-25T01:12:38.722Z,6.93
2017-10-25T01:15:07.284Z,7.80
2017-10-25T01:17:35.794Z,7.32
2017-10-25T01:20:03.458Z,6.15
2017-10-25T01:22:31.073Z,6.55
2017-10-25T01:24:58.685Z,6.75
2017-10-25T01:27:26.349Z,6.30
2017-10-25T01:29:54.726Z,5.95
2017-10-25T01:32:22.388Z,6.03
2017-10-25T01:34:50.008Z,5.85
2017-10-25T01:37:18.386Z,5.75
2017-10-25T01:39:46.251Z,5.78
2017-10-25T01:42:13.873Z,5.43
2017-10-25T01:44:41.518Z,4.87
2017-10-25T01:47:09.135Z,5.30
2017-10-25T01:49:36.866Z,5.40
2017-10-25T01:52:04.528Z,4.40
2017-10-25T01:54:32.157Z,5.15
2017-10-25T01:56:59.819Z,4.85
2017-10-25T01:59:27.469Z,5.50
2017-10-25T02:01:55.088Z,4.07
2017-10-25T02:04:22.802Z,4.60
2017-10-25T02:06:50.414Z,5.50
2017-10-25T02:09:18.075Z,4.53
2017-10-25T02:11:46.455Z,4.80
2017-10-25T02:14:14.067Z,4.62
2017-10-25T02:16:41.722Z,6.07
2017-10-25T02:19:09.338Z,5.43
2017-10-25T02:21:36.987Z,4.95
2017-10-25T02:24:04.601Z,5.68
2017-10-25T02:26:32.219Z,4.80
2017-10-25T02:29:00.630Z,5.32
2017-10-25T02:31:28.265Z,5.10
2017-10-25T02:33:56.087Z,5.18
2017-10-25T02:36:23.714Z,6.12
2017-10-25T02:38:52.107Z,5.22
2017-10-25T02:41:19.760Z,5.95
2017-10-25T02:43:47.383Z,5.70
2017-10-25T02:46:15.918Z,7.70
2017-10-25T02:48:43.534Z,5.30
2017-10-25T02:51:11.157Z,9.75
2017-10-25T02:53:38.804Z,9.27
2017-10-25T02:56:06.433Z,7.62
2017-10-25T02:58:34.846Z,6.12
2017-10-25T03:01:02.468Z,7.43
2017-10-25T03:03:30.086Z,7.05
2017-10-25T03:05:57.724Z,8.07
2017-10-25T03:08:25.406Z,7.22
2017-10-25T03:10:53.065Z,11.77
2017-10-25T03:13:20.684Z,7.93
2017-10-25T03:15:49.063Z,7.90
2017-10-25T03:18:16.802Z,9.27
2017-10-25T03:20:45.287Z,9.75
2017-10-25T03:23:13.007Z,7.93
2017-10-25T03:25:40.642Z,12.23
2017-10-25T03:28:09.031Z,10.15
2017-10-25T03:30:36.789Z,11.10
2017-10-25T03:33:04.406Z,8.05
2017-10-25T03:35:32.821Z,8.20
2017-10-25T03:38:00.440Z,9.23
2017-10-25T03:40:28.058Z,7.05
2017-10-25T03:42:56.107Z,8.25
2017-10-25T03:45:23.733Z,8.60
2017-10-25T03:47:51.386Z,6.65
2017-10-25T03:50:18.996Z,6.68
2017-10-25T03:52:46.609Z,7.62
2017-10-25T03:55:15.029Z,6.53
2017-10-25T03:57:42.648Z,7.78
2017-10-25T04:00:10.307Z,6.70
2017-10-25T04:02:37.923Z,6.37
2017-10-25T04:05:05.645Z,6.55
2017-10-25T04:07:33.296Z,8.70
2017-10-25T04:10:01.695Z,9.88
2017-10-25T04:12:29.356Z,8.70
2017-10-25T04:14:57.105Z,8.38
2017-10-25T04:17:24.787Z,6.60
2017-10-25T04:19:52.430Z,9.98
2017-10-25T04:22:20.058Z,7.75
2017-10-25T04:24:47.720Z,9.68
2017-10-25T04:27:15.406Z,8.88
2017-10-25T04:29:43.803Z,10.02
2017-10-25T04:32:11.442Z,9.45
2017-10-25T04:34:39.076Z,11.32
2017-10-25T04:37:06.972Z,15.63
2017-10-25T04:39:34.583Z,8.60
2017-10-25T04:42:02.199Z,7.35
2017-10-25T04:44:30.623Z,8.52
2017-10-25T04:46:58.235Z,6.93
2017-10-25T04:49:27.173Z,7.75
2017-10-25T04:51:54.804Z,6.80
2017-10-25T04:54:24.398Z,7.22
2017-10-25T04:56:52.052Z,6.55
2017-10-25T04:59:19.672Z,7.43
2017-10-25T05:01:47.328Z,6.43
2017-10-25T05:04:14.953Z,7.03
2017-10-25T05:06:42.566Z,5.85
2017-10-25T05:09:10.218Z,7.93
2017-10-25T05:11:37.873Z,6.12
2017-10-25T05:14:05.572Z,6.57
2017-10-25T05:16:33.191Z,7.00
2017-10-25T05:19:00.816Z,5.93
2017-10-25T05:21:28.497Z,6.87
2017-10-25T05:23:56.302Z,7.80
2017-10-25T05:26:23.950Z,7.65
2017-10-25T05:28:51.572Z,7.22
2017-10-25T05:31:19.202Z,7.78
2017-10-25T05:33:46.895Z,7.87
2017-10-25T05:36:14.507Z,6.80
2017-10-25T05:38:42.932Z,7.12
2017-10-25T05:41:10.566Z,8.13
2017-10-25T05:43:38.189Z,7.80
2017-10-25T05:46:06.610Z,6.78
2017-10-25T05:48:34.238Z,7.12
2017-10-25T05:51:01.911Z,7.25
2017-10-25T05:53:29.559Z,7.75
2017-10-25T05:55:57.215Z,7.68
2017-10-25T05:58:24.857Z,9.27
2017-10-25T06:00:52.474Z,8.77
2017-10-25T06:03:20.160Z,8.20
2017-10-25T06:05:47.774Z,7.90
2017-10-25T06:08:15.391Z,7.50
2017-10-25T06:10:43.037Z,7.70
2017-10-25T06:13:10.672Z,7.10
2017-10-25T06:15:38.325Z,7.95
2017-10-25T06:18:06.320Z,7.72
2017-10-25T06:20:33.935Z,7.28
2017-10-25T06:23:01.574Z,9.30
2017-10-25T06:25:29.187Z,8.55
2017-10-25T06:27:56.978Z,7.70
2017-10-25T06:30:24.606Z,8.05
2017-10-25T06:32:52.300Z,6.80
2017-10-25T06:35:19.938Z,7.25
2017-10-25T06:37:47.564Z,7.97
2017-10-25T06:40:15.262Z,11.73
2017-10-25T06:42:43.683Z,6.65
2017-10-25T06:45:11.298Z,10.43
2017-10-25T06:47:39.706Z,7.20
2017-10-25T06:50:07.335Z,9.45
2017-10-25T06:52:34.980Z,8.02
2017-10-25T06:55:02.590Z,8.30
2017-10-25T06:57:30.986Z,9.07
2017-10-25T06:59:58.647Z,11.70
2017-10-25T07:02:26.302Z,9.23
2017-10-25T07:04:53.954Z,6.85
2017-10-25T07:07:21.609Z,7.82
2017-10-25T07:09:49.794Z,7.78
2017-10-25T07:12:17.467Z,7.30
2017-10-25T07:14:45.112Z,7.90
2017-10-25T07:17:12.806Z,6.82
2017-10-25T07:19:40.442Z,8.00
2017-10-25T07:22:08.062Z,9.38
2017-10-25T07:24:35.794Z,9.63
2017-10-25T07:27:03.419Z,10.52
2017-10-25T07:29:31.083Z,9.48
2017-10-25T07:31:59.469Z,7.70
2017-10-25T07:34:27.276Z,10.50
2017-10-25T07:36:54.926Z,9.63
2017-10-25T07:39:22.542Z,8.50
2017-10-25T07:41:50.195Z,10.18
2017-10-25T07:44:17.818Z,9.43
2017-10-25T07:46:45.438Z,9.65
2017-10-25T07:49:13.090Z,10.23
2017-10-25T07:51:40.710Z,10.25
2017-10-25T07:54:09.122Z,9.50
2017-10-25T07:56:36.843Z,12.15
2017-10-25T07:59:04.458Z,9.13
2017-10-25T08:01:32.098Z,9.80
2017-10-25T08:03:59.729Z,10.10
2017-10-25T08:06:27.382Z,9.75
2017-10-25T08:08:55.007Z,10.63
2017-10-25T08:11:22.717Z,10.90
2017-10-25T08:13:51.170Z,10.90
2017-10-25T08:16:19.557Z,11.02
2017-10-25T08:18:47.260Z,10.35
2017-10-25T08:21:14.879Z,10.35
2017-10-25T08:23:42.805Z,11.00
2017-10-25T08:26:10.515Z,11.50
2017-10-25T08:28:38.139Z,11.82
2017-10-25T08:31:05.847Z,12.70
2017-10-25T08:33:33.494Z,13.55
2017-10-25T08:36:01.111Z,12.63
2017-10-25T08:38:29.517Z,13.15
2017-10-25T08:40:57.237Z,13.62
2017-10-25T08:43:24.914Z,13.82
2017-10-25T08:45:52.540Z,12.82
2017-10-25T08:48:20.198Z,13.15
2017-10-25T08:50:47.855Z,12.00
2017-10-25T08:53:15.474Z,12.40
2017-10-25T08:55:43.139Z,12.15
2017-10-25T08:58:11.118Z,10.80
2017-10-25T09:00:39.091Z,11.25
2017-10-25T09:03:06.852Z,11.12
2017-10-25T09:05:35.283Z,11.10
2017-10-25T09:08:02.939Z,9.80
2017-10-25T09:10:30.576Z,12.07
2017-10-25T09:12:58.190Z,9.60
2017-10-25T09:15:25.868Z,8.45
2017-10-25T09:17:53.494Z,8.13
2017-10-25T09:20:21.157Z,6.40
2017-10-25T09:22:48.789Z,3.87
2017-10-25T09:25:16.434Z,2.12
2017-10-25T09:27:44.826Z,5.60
2017-10-25T09:30:12.419Z,1.10
2017-10-25T09:32:40.087Z,1.65
2017-10-25T09:35:07.739Z,1.00
2017-10-25T09:37:35.360Z,1.10
2017-10-25T09:40:03.002Z,1.37
2017-10-25T09:42:31.402Z,3.80
2017-10-25T09:44:59.070Z,1.40
2017-10-25T09:47:26.757Z,1.10
2017-10-25T09:49:55.370Z,1.05
2017-10-25T09:52:23.014Z,1.35
2017-10-25T09:54:50.610Z,1.43
2017-10-25T09:57:18.251Z,1.97
2017-10-25T09:59:45.886Z,1.17
2017-10-25T10:02:13.486Z,1.13
2017-10-25T10:04:41.876Z,0.87
2017-10-25T10:07:09.486Z,1.55
2017-10-25T10:09:37.248Z,1.00
2017-10-25T10:12:05.733Z,2.33
2017-10-25T10:14:33.797Z,1.07
2017-10-25T10:17:01.420Z,2.23
2017-10-25T10:19:29.022Z,1.10
2017-10-25T10:21:56.658Z,1.20
2017-10-25T10:24:24.260Z,1.43
2017-10-25T10:26:51.872Z,1.03
2017-10-25T10:29:19.510Z,1.27
2017-10-25T10:31:47.183Z,1.27
2017-10-25T10:34:15.675Z,1.10
2017-10-25T10:36:43.276Z,0.93
2017-10-25T10:39:10.878Z,2.50
2017-10-25T10:41:38.502Z,1.83
2017-10-25T10:44:06.101Z,1.83
2017-10-25T10:46:33.727Z,1.60
2017-10-25T10:49:01.335Z,1.00
2017-10-25T10:51:29.717Z,1.13
2017-10-25T10:53:57.339Z,1.20
2017-10-25T10:56:25.969Z,1.57
2017-10-25T10:58:53.594Z,1.00
2017-10-25T11:01:21.203Z,1.70
2017-10-25T11:03:48.912Z,1.00
2017-10-25T11:06:16.556Z,1.00
2017-10-25T11:08:44.164Z,1.20
2017-10-25T11:11:11.826Z,1.10
2017-10-25T11:13:39.446Z,1.20
2017-10-25T11:16:07.219Z,1.30
2017-10-25T11:18:34.835Z,1.70
2017-10-25T11:21:03.194Z,1.30
2017-10-25T11:23:31.592Z,1.23
2017-10-25T11:25:59.182Z,2.23
2017-10-25T11:28:26.835Z,3.03
2017-10-25T11:30:55.280Z,1.75
2017-10-25T11:33:22.878Z,2.03
2017-10-25T11:35:50.534Z,1.20
2017-10-25T11:38:18.150Z,1.20
2017-10-25T11:40:46.515Z,1.40
2017-10-25T11:43:14.906Z,1.00
2017-10-25T11:45:42.500Z,1.37
2017-10-25T11:48:10.123Z,1.10
2017-10-25T11:50:37.741Z,1.30
2017-10-25T11:53:05.376Z,1.70
2017-10-25T11:55:33.002Z,1.23
2017-10-25T11:58:01.358Z,1.27
2017-10-25T12:00:29.762Z,1.10
2017-10-25T12:02:57.366Z,0.90
2017-10-25T12:05:24.963Z,1.30
2017-10-25T12:07:52.596Z,1.10
2017-10-25T12:10:20.210Z,1.10
2017-10-25T12:12:47.937Z,1.70
2017-10-25T12:15:15.554Z,0.93
2017-10-25T12:17:43.150Z,1.00
2017-10-25T12:20:11.540Z,1.03
2017-10-25T12:22:39.149Z,1.37
2017-10-25T12:25:06.908Z,1.07
2017-10-25T12:27:35.271Z,1.10
2017-10-25T12:30:03.650Z,1.57
2017-10-25T12:32:32.185Z,1.03
2017-10-25T12:34:59.793Z,1.27
2017-10-25T12:37:27.414Z,1.00
2017-10-25T12:39:55.840Z,1.43
2017-10-25T12:42:23.446Z,1.10
2017-10-25T12:44:51.067Z,1.73
2017-10-25T12:47:19.430Z,2.30
2017-10-25T12:49:47.826Z,1.40
2017-10-25T12:52:15.434Z,1.30
2017-10-25T12:54:43.044Z,1.20
2017-10-25T12:57:10.656Z,1.90
2017-10-25T12:59:38.301Z,1.48
2017-10-25T13:02:06.042Z,1.53
2017-10-25T13:04:33.668Z,1.37
2017-10-25T13:07:02.032Z,1.20
2017-10-25T13:09:30.546Z,2.33
2017-10-25T13:12:08.473Z,1.40
2017-10-25T13:17:35.012Z,1.50
2017-10-25T13:20:03.394Z,3.20
2017-10-25T13:22:30.981Z,1.90
2017-10-25T13:24:58.626Z,1.73
2017-10-25T13:27:26.258Z,2.80
2017-10-25T13:29:53.854Z,1.57
2017-10-25T13:32:22.239Z,1.63
2017-10-25T13:34:49.843Z,1.80
2017-10-25T13:37:17.476Z,1.60
2017-10-25T13:39:45.082Z,1.47
2017-10-25T13:42:12.822Z,2.23
2017-10-25T13:44:40.443Z,1.80
2017-10-25T13:47:08.808Z,1.80
2017-10-25T13:49:37.235Z,2.23
2017-10-25T13:52:04.846Z,2.30
2017-10-25T13:54:32.439Z,2.60
2017-10-25T13:57:00.053Z,3.20
2017-10-25T13:59:27.657Z,2.53
2017-10-25T14:01:55.294Z,2.30
2017-10-25T14:04:23.670Z,2.63
2017-10-25T14:06:52.042Z,3.67
2017-10-25T14:09:19.662Z,2.03
2017-10-25T14:11:48.041Z,2.10
2017-10-25T14:14:16.578Z,2.55
2017-10-25T14:16:44.170Z,2.43
2017-10-25T14:19:11.766Z,1.97
2017-10-25T14:21:39.394Z,2.10
2017-10-25T14:24:07.053Z,3.00
2017-10-25T14:26:46.482Z,2.03
2017-10-25T14:29:14.094Z,2.00
2017-10-25T14:31:41.743Z,2.85
2017-10-25T14:34:09.345Z,2.37
2017-10-25T14:36:37.141Z,2.90
2017-10-25T14:39:04.787Z,2.47
2017-10-25T14:41:42.014Z,2.37
2017-10-25T14:44:09.638Z,2.70
2017-10-25T14:46:38.542Z,2.45
2017-10-25T14:49:06.287Z,2.53
2017-10-25T14:51:33.906Z,1.95
2017-10-25T14:54:01.571Z,2.80
2017-10-25T14:56:29.292Z,2.45
2017-10-25T14:58:56.910Z,2.60
2017-10-25T15:01:24.550Z,2.40
2017-10-25T15:03:52.167Z,2.45
2017-10-25T15:06:20.570Z,2.40
2017-10-25T15:08:48.193Z,2.50
2017-10-25T15:11:15.822Z,2.77
2017-10-25T15:13:43.473Z,2.28
2017-10-25T15:16:11.095Z,2.55
2017-10-25T15:18:39.521Z,3.87
2017-10-25T15:21:07.162Z,3.97
2017-10-25T15:23:34.785Z,3.22
2017-10-25T15:26:02.425Z,2.67
2017-10-25T15:28:30.045Z,3.55
2017-10-25T15:30:58.487Z,2.28
2017-10-25T15:33:26.203Z,2.05
2017-10-25T15:35:53.813Z,3.37
2017-10-25T15:38:22.222Z,2.53
2017-10-25T15:40:49.864Z,2.10
2017-10-25T15:43:17.538Z,3.75
2017-10-25T15:45:45.154Z,2.50
2017-10-25T15:48:12.908Z,2.83
2017-10-25T15:50:40.559Z,3.12
2017-10-25T15:53:08.182Z,2.80
2017-10-25T15:55:35.905Z,3.47
2017-10-25T15:58:03.527Z,2.80
2017-10-25T16:00:31.146Z,3.35
2017-10-25T16:02:58.781Z,3.17
2017-10-25T16:05:26.403Z,3.37
2017-10-25T16:07:54.058Z,4.07
2017-10-25T16:10:21.684Z,3.00
2017-10-25T16:12:50.082Z,4.53
2017-10-25T16:15:17.726Z,3.08
2017-10-25T16:17:45.349Z,5.10
2017-10-25T16:20:13.006Z,3.97
2017-10-25T16:22:40.634Z,3.10
2017-10-25T16:25:08.272Z,3.30
2017-10-25T16:27:36.694Z,3.95
2017-10-25T16:30:04.357Z,4.85
2017-10-25T16:32:32.036Z,3.67
2017-10-25T16:34:59.663Z,3.17
2017-10-25T16:37:28.083Z,3.25
2017-10-25T16:39:56.119Z,3.70
2017-10-25T16:42:23.766Z,4.03
2017-10-25T16:44:51.513Z,3.62
2017-10-25T16:47:19.199Z,3.75
2017-10-25T16:49:46.941Z,5.07
2017-10-25T16:52:14.626Z,4.25
2017-10-25T16:54:43.060Z,3.78
2017-10-25T16:57:10.742Z,4.00
2017-10-25T16:59:38.397Z,4.00
2017-10-25T17:02:06.904Z,4.07
2017-10-25T17:04:34.561Z,4.10
2017-10-25T17:07:02.219Z,5.18
2017-10-25T17:09:29.886Z,4.35
2017-10-25T17:11:58.095Z,4.00
2017-10-25T17:14:25.820Z,4.07
2017-10-25T17:16:55.277Z,4.78
2017-10-25T17:19:23.708Z,4.40
2017-10-25T17:21:52.138Z,4.30
2017-10-25T17:24:20.563Z,4.53
2017-10-25T17:26:49.022Z,5.18
2017-10-25T17:29:16.802Z,5.25
2017-10-25T17:31:44.439Z,5.32
2017-10-25T17:34:12.090Z,4.65
2017-10-25T17:36:39.719Z,6.35
2017-10-25T17:39:07.414Z,5.65
2017-10-25T17:41:35.136Z,5.50
2017-10-25T17:44:03.098Z,5.93
2017-10-25T17:46:30.772Z,6.10
2017-10-25T17:48:58.411Z,6.03
2017-10-25T17:51:26.583Z,5.68
2017-10-25T17:53:54.272Z,4.90
2017-10-25T17:56:21.901Z,5.75
2017-10-25T17:58:49.585Z,5.30
2017-10-25T18:01:18.048Z,4.10
2017-10-25T18:03:45.932Z,5.45
2017-10-25T18:06:13.936Z,3.62
2017-10-25T18:08:41.746Z,5.30
2017-10-25T18:11:09.451Z,4.12
2017-10-25T18:13:37.862Z,4.20
2017-10-25T18:16:05.587Z,3.90
2017-10-25T18:18:33.944Z,3.92
2017-10-25T18:21:06.502Z,4.75
2017-10-25T18:23:37.670Z,4.12
2017-10-25T18:26:05.812Z,4.20
2017-10-25T18:28:33.439Z,4.47
2017-10-25T18:31:01.867Z,3.75
2017-10-25T18:33:29.524Z,5.78
2017-10-25T18:35:57.321Z,6.20
2017-10-25T18:38:25.050Z,6.18
2017-10-25T18:40:52.711Z,5.70
2017-10-25T18:43:20.368Z,5.25
2017-10-25T18:45:48.031Z,5.80
2017-10-25T18:48:15.717Z,6.07
2017-10-25T18:50:43.354Z,7.00
2017-10-25T18:53:11.149Z,9.60
2017-10-25T18:55:38.842Z,6.37
2017-10-25T18:58:06.472Z,6.05
2017-10-25T19:00:34.124Z,5.55
2017-10-25T19:03:01.764Z,5.78
2017-10-25T19:05:29.420Z,5.35
2017-10-25T19:07:57.115Z,5.80
2017-10-25T19:10:26.033Z,6.00
2017-10-25T19:12:53.730Z,6.10
2017-10-25T19:15:22.122Z,8.00
2017-10-25T19:17:49.755Z,5.70
2017-10-25T19:20:18.168Z,5.93
2017-10-25T19:22:45.971Z,6.00
2017-10-25T19:25:13.630Z,6.32
2017-10-25T19:27:41.263Z,6.03
2017-10-25T19:30:08.903Z,6.80
2017-10-25T19:32:37.326Z,5.55
2017-10-25T19:35:07.101Z,6.30
2017-10-25T19:37:34.774Z,6.53
2017-10-25T19:40:02.466Z,7.53
2017-10-25T19:42:30.266Z,6.97
2017-10-25T19:44:58.158Z,7.45
2017-10-25T19:47:25.915Z,7.03
2017-10-25T19:49:53.580Z,7.45
2017-10-25T19:52:21.258Z,6.87
2017-10-25T19:54:48.934Z,7.78
2017-10-25T19:57:16.578Z,7.35
2017-10-25T19:59:44.198Z,8.45
2017-10-25T20:02:11.851Z,8.40
2017-10-25T20:04:39.588Z,8.15
2017-10-25T20:07:07.306Z,8.52
2017-10-25T20:09:34.983Z,8.05
2017-10-25T20:12:02.609Z,8.48
2017-10-25T20:14:30.329Z,7.78
2017-10-25T20:16:58.753Z,9.35
2017-10-25T20:19:26.416Z,7.18
2017-10-25T20:21:54.121Z,8.00
2017-10-25T20:24:21.806Z,9.75
2017-10-25T20:26:49.480Z,7.47
2017-10-25T20:29:17.898Z,8.10
2017-10-25T20:31:45.620Z,7.20
2017-10-25T20:34:13.319Z,7.28
2017-10-25T20:36:40.978Z,8.38
2017-10-25T20:39:08.639Z,7.53
2017-10-25T20:41:37.070Z,7.93
2017-10-25T20:44:04.938Z,8.50
2017-10-25T20:46:32.587Z,7.97
2017-10-25T20:49:00.441Z,8.75
2017-10-25T20:51:28.050Z,7.60
2017-10-25T20:53:55.898Z,7.80
2017-10-25T20:56:23.509Z,7.82
2017-10-25T20:58:51.168Z,7.75
2017-10-25T21:01:18.798Z,8.18
2017-10-25T21:03:47.242Z,8.35
2017-10-25T21:06:14.882Z,7.70
2017-10-25T21:08:42.498Z,6.40
2017-10-25T21:11:10.154Z,6.53
2017-10-25T21:13:37.774Z,7.05
2017-10-25T21:16:05.401Z,7.07
2017-10-25T21:18:33.052Z,6.90
2017-10-25T21:21:00.678Z,6.47
2017-10-25T21:23:29.098Z,6.50
2017-10-25T21:25:56.795Z,6.22
2017-10-25T21:28:25.206Z,6.53
2017-10-25T21:30:52.961Z,6.40
2017-10-25T21:33:20.578Z,7.03
2017-10-25T21:35:48.228Z,7.85
2017-10-25T21:38:15.858Z,5.87
2017-10-25T21:40:44.238Z,6.82
2017-10-25T21:43:11.893Z,6.30
2017-10-25T21:45:39.493Z,7.40
2017-10-25T21:48:07.277Z,6.37
2017-10-25T21:50:34.890Z,7.20
2017-10-25T21:53:02.506Z,6.85
2017-10-25T21:55:30.159Z,6.57
2017-10-25T21:57:57.777Z,8.27
2017-10-25T22:00:25.439Z,7.68
2017-10-25T22:02:53.054Z,7.37
2017-10-25T22:05:20.678Z,8.38
2017-10-25T22:07:49.078Z,8.43
2017-10-25T22:10:16.699Z,9.38
2017-10-25T22:12:45.385Z,10.15
2017-10-25T22:15:13.004Z,7.78
2017-10-25T22:17:41.402Z,9.98
2017-10-25T22:20:09.058Z,9.35
2017-10-25T22:22:36.675Z,10.38
2017-10-25T22:25:04.305Z,12.05
2017-10-25T22:27:32.710Z,11.55
2017-10-25T22:30:00.607Z,11.60
2017-10-25T22:32:28.261Z,11.00
2017-10-25T22:34:56.882Z,11.57
2017-10-25T22:37:24.503Z,14.55
2017-10-25T22:39:52.153Z,13.77
2017-10-25T22:42:19.797Z,14.55
2017-10-25T22:44:47.454Z,14.55
2017-10-25T22:47:15.106Z,11.45
2017-10-25T22:49:42.908Z,13.73
2017-10-25T22:52:10.553Z,14.55
2017-10-25T22:54:38.173Z,11.88
2017-10-25T22:57:05.862Z,12.57
2017-10-25T22:59:33.724Z,12.95
2017-10-25T23:02:01.362Z,16.12
2017-10-25T23:04:29.792Z,12.63
2017-10-25T23:06:57.410Z,14.55
2017-10-25T23:09:25.474Z,12.98
2017-10-25T23:11:53.093Z,12.30
2017-10-25T23:14:20.720Z,10.80
2017-10-25T23:16:49.146Z,12.35
2017-10-25T23:19:16.866Z,14.25
2017-10-25T23:21:44.527Z,14.30
2017-10-25T23:24:12.152Z,12.95
2017-10-25T23:26:39.771Z,13.30
2017-10-25T23:29:08.181Z,12.80
2017-10-25T23:31:35.829Z,11.77
2017-10-25T23:34:03.493Z,12.18
2017-10-25T23:36:31.162Z,13.35
2017-10-25T23:38:58.781Z,11.43
2017-10-25T23:41:26.434Z,13.20
2017-10-25T23:43:54.071Z,11.45
2017-10-25T23:46:22.551Z,14.00
2017-10-25T23:48:50.183Z,15.10
2017-10-25T23:51:17.803Z,16.25
2017-10-25T23:53:45.449Z,13.57
2017-10-25T23:56:13.067Z,14.32
2017-10-25T23:58:41.491Z,15.10
